Aviation Digital Data Service (ADDS)

Output produced by METARs form (2026 UTC 20 August 2019)
found at http://www.aviationweather.gov/metar/data/
 
METAR text: WAMM 202000Z 22003KT 9999 FEW023 24/19 Q1009 NOSIG
Conditions at: WAMM (MENADO/SAM RATUL, ID) observed 2000 UTC 20 August 2019
Temperature: 24.0°C (75°F)
Dewpoint: 19.0°C (66°F) [RH = 74%]
Pressure (altimeter): 29.79 inches Hg (1009.0 mb)
Winds: from the SW (220 degrees) at 3 MPH (3 knots; 1.5 m/s)
Visibility: 6 or more miles (10+ km)
Ceiling: at least 12,000 feet AGL
Clouds: few clouds at 2300 feet AGL
Weather: no significant weather observed at this time

METAR text: WAMM 201930Z 21004KT 9999 FEW023 25/19 Q1009 NOSIG
Conditions at: WAMM (MENADO/SAM RATUL, ID) observed 1930 UTC 20 August 2019
Temperature: 25.0°C (77°F)
Dewpoint: 19.0°C (66°F) [RH = 69%]
Pressure (altimeter): 29.79 inches Hg (1009.0 mb)
Winds: from the SSW (210 degrees) at 5 MPH (4 knots; 2.1 m/s)
Visibility: 6 or more miles (10+ km)
Ceiling: at least 12,000 feet AGL
Clouds: few clouds at 2300 feet AGL
Weather: no significant weather observed at this time

METAR text: WAMM 201900Z 20005KT 9999 FEW023 25/19 Q1009 NOSIG
Conditions at: WAMM (MENADO/SAM RATUL, ID) observed 1900 UTC 20 August 2019
Temperature: 25.0°C (77°F)
Dewpoint: 19.0°C (66°F) [RH = 69%]
Pressure (altimeter): 29.79 inches Hg (1009.0 mb)
Winds: from the SSW (200 degrees) at 6 MPH (5 knots; 2.6 m/s)
Visibility: 6 or more miles (10+ km)
Ceiling: at least 12,000 feet AGL
Clouds: few clouds at 2300 feet AGL
Weather: no significant weather observed at this time

METAR text: WAMM 201830Z 21005KT 9999 FEW023 25/19 Q1009 NOSIG
Conditions at: WAMM (MENADO/SAM RATUL, ID) observed 1830 UTC 20 August 2019
Temperature: 25.0°C (77°F)
Dewpoint: 19.0°C (66°F) [RH = 69%]
Pressure (altimeter): 29.79 inches Hg (1009.0 mb)
Winds: from the SSW (210 degrees) at 6 MPH (5 knots; 2.6 m/s)
Visibility: 6 or more miles (10+ km)
Ceiling: at least 12,000 feet AGL
Clouds: few clouds at 2300 feet AGL
Weather: no significant weather observed at this time

METAR text: WAMM 201800Z 19007KT 9999 FEW023 25/19 Q1009 NOSIG
Conditions at: WAMM (MENADO/SAM RATUL, ID) observed 1800 UTC 20 August 2019
Temperature: 25.0°C (77°F)
Dewpoint: 19.0°C (66°F) [RH = 69%]
Pressure (altimeter): 29.79 inches Hg (1009.0 mb)
Winds: from the S (190 degrees) at 8 MPH (7 knots; 3.6 m/s)
Visibility: 6 or more miles (10+ km)
Ceiling: at least 12,000 feet AGL
Clouds: few clouds at 2300 feet AGL
Weather: no significant weather observed at this time

METAR text: WAMM 201730Z 20005KT 9999 FEW023 26/19 Q1010 NOSIG
Conditions at: WAMM (MENADO/SAM RATUL, ID) observed 1730 UTC 20 August 2019
Temperature: 26.0°C (79°F)
Dewpoint: 19.0°C (66°F) [RH = 65%]
Pressure (altimeter): 29.82 inches Hg (1010.0 mb)
Winds: from the SSW (200 degrees) at 6 MPH (5 knots; 2.6 m/s)
Visibility: 6 or more miles (10+ km)
Ceiling: at least 12,000 feet AGL
Clouds: few clouds at 2300 feet AGL
Weather: no significant weather observed at this time

METAR text: WAMM 201700Z 21007KT 9999 FEW023 26/19 Q1010 NOSIG
Conditions at: WAMM (MENADO/SAM RATUL, ID) observed 1700 UTC 20 August 2019
Temperature: 26.0°C (79°F)
Dewpoint: 19.0°C (66°F) [RH = 65%]
Pressure (altimeter): 29.82 inches Hg (1010.0 mb)
Winds: from the SSW (210 degrees) at 8 MPH (7 knots; 3.6 m/s)
Visibility: 6 or more miles (10+ km)
Ceiling: at least 12,000 feet AGL
Clouds: few clouds at 2300 feet AGL
Weather: no significant weather observed at this time

METAR text: WAMM 201630Z 18006KT 9999 FEW023 26/19 Q1011 NOSIG
Conditions at: WAMM (MENADO/SAM RATUL, ID) observed 1630 UTC 20 August 2019
Temperature: 26.0°C (79°F)
Dewpoint: 19.0°C (66°F) [RH = 65%]
Pressure (altimeter): 29.85 inches Hg (1011.0 mb)
Winds: from the S (180 degrees) at 7 MPH (6 knots; 3.1 m/s)
Visibility: 6 or more miles (10+ km)
Ceiling: at least 12,000 feet AGL
Clouds: few clouds at 2300 feet AGL
Weather: no significant weather observed at this time

METAR text: WAMM 201600Z 18006KT 9999 FEW023 26/19 Q1011 NOSIG
Conditions at: WAMM (MENADO/SAM RATUL, ID) observed 1600 UTC 20 August 2019
Temperature: 26.0°C (79°F)
Dewpoint: 19.0°C (66°F) [RH = 65%]
Pressure (altimeter): 29.85 inches Hg (1011.0 mb)
Winds: from the S (180 degrees) at 7 MPH (6 knots; 3.1 m/s)
Visibility: 6 or more miles (10+ km)
Ceiling: at least 12,000 feet AGL
Clouds: few clouds at 2300 feet AGL
Weather: no significant weather observed at this time

METAR text: WAMM 201530Z 19004KT 9999 FEW022 26/19 Q1011 NOSIG
Conditions at: WAMM (MENADO/SAM RATUL, ID) observed 1530 UTC 20 August 2019
Temperature: 26.0°C (79°F)
Dewpoint: 19.0°C (66°F) [RH = 65%]
Pressure (altimeter): 29.85 inches Hg (1011.0 mb)
Winds: from the S (190 degrees) at 5 MPH (4 knots; 2.1 m/s)
Visibility: 6 or more miles (10+ km)
Ceiling: at least 12,000 feet AGL
Clouds: few clouds at 2200 feet AGL
Weather: no significant weather observed at this time

METAR text: WAMM 201500Z 19007KT 9999 FEW022 26/19 Q1011 NOSIG
Conditions at: WAMM (MENADO/SAM RATUL, ID) observed 1500 UTC 20 August 2019
Temperature: 26.0°C (79°F)
Dewpoint: 19.0°C (66°F) [RH = 65%]
Pressure (altimeter): 29.85 inches Hg (1011.0 mb)
Winds: from the S (190 degrees) at 8 MPH (7 knots; 3.6 m/s)
Visibility: 6 or more miles (10+ km)
Ceiling: at least 12,000 feet AGL
Clouds: few clouds at 2200 feet AGL
Weather: no significant weather observed at this time

METAR text: WAMM 201430Z 18004KT 9999 FEW022 26/20 Q1012 NOSIG
Conditions at: WAMM (MENADO/SAM RATUL, ID) observed 1430 UTC 20 August 2019
Temperature: 26.0°C (79°F)
Dewpoint: 20.0°C (68°F) [RH = 70%]
Pressure (altimeter): 29.88 inches Hg (1012.0 mb)
Winds: from the S (180 degrees) at 5 MPH (4 knots; 2.1 m/s)
Visibility: 6 or more miles (10+ km)
Ceiling: at least 12,000 feet AGL
Clouds: few clouds at 2200 feet AGL
Weather: no significant weather observed at this time

METAR text: WAMM 201400Z 13005KT 9999 FEW022 26/20 Q1012 NOSIG
Conditions at: WAMM (MENADO/SAM RATUL, ID) observed 1400 UTC 20 August 2019
Temperature: 26.0°C (79°F)
Dewpoint: 20.0°C (68°F) [RH = 70%]
Pressure (altimeter): 29.88 inches Hg (1012.0 mb)
Winds: from the SE (130 degrees) at 6 MPH (5 knots; 2.6 m/s)
Visibility: 6 or more miles (10+ km)
Ceiling: at least 12,000 feet AGL
Clouds: few clouds at 2200 feet AGL
Weather: no significant weather observed at this time

METAR text: WAMM 201330Z 18003KT 9999 FEW022 26/19 Q1012 NOSIG
Conditions at: WAMM (MENADO/SAM RATUL, ID) observed 1330 UTC 20 August 2019
Temperature: 26.0°C (79°F)
Dewpoint: 19.0°C (66°F) [RH = 65%]
Pressure (altimeter): 29.88 inches Hg (1012.0 mb)
Winds: from the S (180 degrees) at 3 MPH (3 knots; 1.5 m/s)
Visibility: 6 or more miles (10+ km)
Ceiling: at least 12,000 feet AGL
Clouds: few clouds at 2200 feet AGL
Weather: no significant weather observed at this time

METAR text: WAMM 201300Z 16003KT 9999 FEW022 26/19 Q1012 NOSIG
Conditions at: WAMM (MENADO/SAM RATUL, ID) observed 1300 UTC 20 August 2019
Temperature: 26.0°C (79°F)
Dewpoint: 19.0°C (66°F) [RH = 65%]
Pressure (altimeter): 29.88 inches Hg (1012.0 mb)
Winds: from the SSE (160 degrees) at 3 MPH (3 knots; 1.5 m/s)
Visibility: 6 or more miles (10+ km)
Ceiling: at least 12,000 feet AGL
Clouds: few clouds at 2200 feet AGL
Weather: no significant weather observed at this time

METAR text: WAMM 201230Z 16004KT 9999 FEW022 26/19 Q1012 NOSIG
Conditions at: WAMM (MENADO/SAM RATUL, ID) observed 1230 UTC 20 August 2019
Temperature: 26.0°C (79°F)
Dewpoint: 19.0°C (66°F) [RH = 65%]
Pressure (altimeter): 29.88 inches Hg (1012.0 mb)
Winds: from the SSE (160 degrees) at 5 MPH (4 knots; 2.1 m/s)
Visibility: 6 or more miles (10+ km)
Ceiling: at least 12,000 feet AGL
Clouds: few clouds at 2200 feet AGL
Weather: no significant weather observed at this time

METAR text: WAMM 201200Z 17006KT 9999 FEW022 26/19 Q1011 NOSIG
Conditions at: WAMM (MENADO/SAM RATUL, ID) observed 1200 UTC 20 August 2019
Temperature: 26.0°C (79°F)
Dewpoint: 19.0°C (66°F) [RH = 65%]
Pressure (altimeter): 29.85 inches Hg (1011.0 mb)
Winds: from the S (170 degrees) at 7 MPH (6 knots; 3.1 m/s)
Visibility: 6 or more miles (10+ km)
Ceiling: at least 12,000 feet AGL
Clouds: few clouds at 2200 feet AGL
Weather: no significant weather observed at this time

METAR text: WAMM 201130Z 18007KT 9999 FEW022 26/19 Q1011 NOSIG
Conditions at: WAMM (MENADO/SAM RATUL, ID) observed 1130 UTC 20 August 2019
Temperature: 26.0°C (79°F)
Dewpoint: 19.0°C (66°F) [RH = 65%]
Pressure (altimeter): 29.85 inches Hg (1011.0 mb)
Winds: from the S (180 degrees) at 8 MPH (7 knots; 3.6 m/s)
Visibility: 6 or more miles (10+ km)
Ceiling: at least 12,000 feet AGL
Clouds: few clouds at 2200 feet AGL
Weather: no significant weather observed at this time

METAR text: WAMM 201100Z 16003KT 9999 FEW022 27/19 Q1011 NOSIG
Conditions at: WAMM (MENADO/SAM RATUL, ID) observed 1100 UTC 20 August 2019
Temperature: 27.0°C (81°F)
Dewpoint: 19.0°C (66°F) [RH = 62%]
Pressure (altimeter): 29.85 inches Hg (1011.0 mb)
Winds: from the SSE (160 degrees) at 3 MPH (3 knots; 1.5 m/s)
Visibility: 6 or more miles (10+ km)
Ceiling: at least 12,000 feet AGL
Clouds: few clouds at 2200 feet AGL
Weather: no significant weather observed at this time

METAR text: WAMM 201030Z 12004KT 9999 FEW022 27/19 Q1011 NOSIG
Conditions at: WAMM (MENADO/SAM RATUL, ID) observed 1030 UTC 20 August 2019
Temperature: 27.0°C (81°F)
Dewpoint: 19.0°C (66°F) [RH = 62%]
Pressure (altimeter): 29.85 inches Hg (1011.0 mb)
Winds: from the ESE (120 degrees) at 5 MPH (4 knots; 2.1 m/s)
Visibility: 6 or more miles (10+ km)
Ceiling: at least 12,000 feet AGL
Clouds: few clouds at 2200 feet AGL
Weather: no significant weather observed at this time

METAR text: WAMM 201000Z 16004KT 9999 FEW022 28/19 Q1010 NOSIG
Conditions at: WAMM (MENADO/SAM RATUL, ID) observed 1000 UTC 20 August 2019
Temperature: 28.0°C (82°F)
Dewpoint: 19.0°C (66°F) [RH = 58%]
Pressure (altimeter): 29.82 inches Hg (1010.0 mb)
Winds: from the SSE (160 degrees) at 5 MPH (4 knots; 2.1 m/s)
Visibility: 6 or more miles (10+ km)
Ceiling: at least 12,000 feet AGL
Clouds: few clouds at 2200 feet AGL
Weather: no significant weather observed at this time

METAR text: WAMM 200930Z 18014KT 9999 FEW022 30/19 Q1010 NOSIG
Conditions at: WAMM (MENADO/SAM RATUL, ID) observed 0930 UTC 20 August 2019
Temperature: 30.0°C (86°F)
Dewpoint: 19.0°C (66°F) [RH = 52%]
Pressure (altimeter): 29.82 inches Hg (1010.0 mb)
Winds: from the S (180 degrees) at 16 MPH (14 knots; 7.2 m/s)
Visibility: 6 or more miles (10+ km)
Ceiling: at least 12,000 feet AGL
Clouds: few clouds at 2200 feet AGL
Weather: no significant weather observed at this time

METAR text: WAMM 200900Z 19015KT 9999 FEW022 31/19 Q1009 NOSIG
Conditions at: WAMM (MENADO/SAM RATUL, ID) observed 0900 UTC 20 August 2019
Temperature: 31.0°C (88°F)
Dewpoint: 19.0°C (66°F) [RH = 49%]
Pressure (altimeter): 29.79 inches Hg (1009.0 mb)
Winds: from the S (190 degrees) at 17 MPH (15 knots; 7.7 m/s)
Visibility: 6 or more miles (10+ km)
Ceiling: at least 12,000 feet AGL
Clouds: few clouds at 2200 feet AGL
Weather: no significant weather observed at this time

METAR text: WAMM 200830Z 18010KT 9999 FEW022 32/20 Q1009 NOSIG
Conditions at: WAMM (MENADO/SAM RATUL, ID) observed 0830 UTC 20 August 2019
Temperature: 32.0°C (90°F)
Dewpoint: 20.0°C (68°F) [RH = 49%]
Pressure (altimeter): 29.79 inches Hg (1009.0 mb)
Winds: from the S (180 degrees) at 12 MPH (10 knots; 5.1 m/s)
Visibility: 6 or more miles (10+ km)
Ceiling: at least 12,000 feet AGL
Clouds: few clouds at 2200 feet AGL
Weather: no significant weather observed at this time

METAR text: WAMM 200800Z 19015KT 9999 SCT022 32/20 Q1009 NOSIG
Conditions at: WAMM (MENADO/SAM RATUL, ID) observed 0800 UTC 20 August 2019
Temperature: 32.0°C (90°F)
Dewpoint: 20.0°C (68°F) [RH = 49%]
Pressure (altimeter): 29.79 inches Hg (1009.0 mb)
Winds: from the S (190 degrees) at 17 MPH (15 knots; 7.7 m/s)
Visibility: 6 or more miles (10+ km)
Ceiling: at least 12,000 feet AGL
Clouds: scattered clouds at 2200 feet AGL
Weather: no significant weather observed at this time

METAR text: WAMM 200730Z 18011KT 9999 SCT022 34/21 Q1009 NOSIG
Conditions at: WAMM (MENADO/SAM RATUL, ID) observed 0730 UTC 20 August 2019
Temperature: 34.0°C (93°F)
Dewpoint: 21.0°C (70°F) [RH = 47%]
Pressure (altimeter): 29.79 inches Hg (1009.0 mb)
Winds: from the S (180 degrees) at 13 MPH (11 knots; 5.7 m/s)
Visibility: 6 or more miles (10+ km)
Ceiling: at least 12,000 feet AGL
Clouds: scattered clouds at 2200 feet AGL
Weather: no significant weather observed at this time

METAR text: WAMM 200700Z 17007KT 120V200 9999 SCT022 31/20 Q1009 NOSIG
Conditions at: WAMM (MENADO/SAM RATUL, ID) observed 0700 UTC 20 August 2019
Temperature: 31.0°C (88°F)
Dewpoint: 20.0°C (68°F) [RH = 52%]
Pressure (altimeter): 29.79 inches Hg (1009.0 mb)
Winds: from the S (170 degrees) at 8 MPH (7 knots; 3.6 m/s)
Visibility: 6 or more miles (10+ km)
Ceiling: at least 12,000 feet AGL
Clouds: scattered clouds at 2200 feet AGL
Weather: no significant weather observed at this time

METAR text: WAMM 200630Z 16007KT 9999 SCT022 33/20 Q1009 NOSIG
Conditions at: WAMM (MENADO/SAM RATUL, ID) observed 0630 UTC 20 August 2019
Temperature: 33.0°C (91°F)
Dewpoint: 20.0°C (68°F) [RH = 46%]
Pressure (altimeter): 29.79 inches Hg (1009.0 mb)
Winds: from the SSE (160 degrees) at 8 MPH (7 knots; 3.6 m/s)
Visibility: 6 or more miles (10+ km)
Ceiling: at least 12,000 feet AGL
Clouds: scattered clouds at 2200 feet AGL
Weather: no significant weather observed at this time

METAR text: WAMM 200600Z 18011G21KT 9999 FEW022 35/20 Q1009 NOSIG
Conditions at: WAMM (MENADO/SAM RATUL, ID) observed 0600 UTC 20 August 2019
Temperature: 35.0°C (95°F)
Dewpoint: 20.0°C (68°F) [RH = 42%]
Pressure (altimeter): 29.79 inches Hg (1009.0 mb)
Winds: from the S (180 degrees) at 13 MPH (11 knots; 5.7 m/s)
gusting to 24 MPH (21 knots; 10.8 m/s)
Visibility: 6 or more miles (10+ km)
Ceiling: at least 12,000 feet AGL
Clouds: few clouds at 2200 feet AGL
Weather: no significant weather observed at this time

METAR text: WAMM 200530Z 18012KT 9999 FEW022 35/20 Q1009 NOSIG
Conditions at: WAMM (MENADO/SAM RATUL, ID) observed 0530 UTC 20 August 2019
Temperature: 35.0°C (95°F)
Dewpoint: 20.0°C (68°F) [RH = 42%]
Pressure (altimeter): 29.79 inches Hg (1009.0 mb)
Winds: from the S (180 degrees) at 14 MPH (12 knots; 6.2 m/s)
Visibility: 6 or more miles (10+ km)
Ceiling: at least 12,000 feet AGL
Clouds: few clouds at 2200 feet AGL
Weather: no significant weather observed at this time

METAR text: WAMM 200500Z 19018KT 9999 FEW022 35/21 Q1009 NOSIG
Conditions at: WAMM (MENADO/SAM RATUL, ID) observed 0500 UTC 20 August 2019
Temperature: 35.0°C (95°F)
Dewpoint: 21.0°C (70°F) [RH = 44%]
Pressure (altimeter): 29.79 inches Hg (1009.0 mb)
Winds: from the S (190 degrees) at 21 MPH (18 knots; 9.3 m/s)
Visibility: 6 or more miles (10+ km)
Ceiling: at least 12,000 feet AGL
Clouds: few clouds at 2200 feet AGL
Weather: no significant weather observed at this time

METAR text: WAMM 200430Z 19020KT 9999 FEW022 35/21 Q1009 NOSIG
Conditions at: WAMM (MENADO/SAM RATUL, ID) observed 0430 UTC 20 August 2019
Temperature: 35.0°C (95°F)
Dewpoint: 21.0°C (70°F) [RH = 44%]
Pressure (altimeter): 29.79 inches Hg (1009.0 mb)
Winds: from the S (190 degrees) at 23 MPH (20 knots; 10.3 m/s)
Visibility: 6 or more miles (10+ km)
Ceiling: at least 12,000 feet AGL
Clouds: few clouds at 2200 feet AGL
Weather: no significant weather observed at this time

METAR text: WAMM 200400Z 20017KT 9999 FEW022 34/21 Q1010 NOSIG
Conditions at: WAMM (MENADO/SAM RATUL, ID) observed 0400 UTC 20 August 2019
Temperature: 34.0°C (93°F)
Dewpoint: 21.0°C (70°F) [RH = 47%]
Pressure (altimeter): 29.82 inches Hg (1010.0 mb)
Winds: from the SSW (200 degrees) at 20 MPH (17 knots; 8.7 m/s)
Visibility: 6 or more miles (10+ km)
Ceiling: at least 12,000 feet AGL
Clouds: few clouds at 2200 feet AGL
Weather: no significant weather observed at this time

METAR text: WAMM 200330Z 18013KT 9999 FEW022 34/21 Q1010 NOSIG
Conditions at: WAMM (MENADO/SAM RATUL, ID) observed 0330 UTC 20 August 2019
Temperature: 34.0°C (93°F)
Dewpoint: 21.0°C (70°F) [RH = 47%]
Pressure (altimeter): 29.82 inches Hg (1010.0 mb)
Winds: from the S (180 degrees) at 15 MPH (13 knots; 6.7 m/s)
Visibility: 6 or more miles (10+ km)
Ceiling: at least 12,000 feet AGL
Clouds: few clouds at 2200 feet AGL
Weather: no significant weather observed at this time

METAR text: WAMM 200300Z 18016G26KT 9999 FEW022 34/21 Q1010 NOSIG
Conditions at: WAMM (MENADO/SAM RATUL, ID) observed 0300 UTC 20 August 2019
Temperature: 34.0°C (93°F)
Dewpoint: 21.0°C (70°F) [RH = 47%]
Pressure (altimeter): 29.82 inches Hg (1010.0 mb)
Winds: from the S (180 degrees) at 18 MPH (16 knots; 8.2 m/s)
gusting to 30 MPH (26 knots; 13.4 m/s)
Visibility: 6 or more miles (10+ km)
Ceiling: at least 12,000 feet AGL
Clouds: few clouds at 2200 feet AGL
Weather: no significant weather observed at this time

METAR text: WAMM 200230Z 20014KT 9999 FEW022 32/22 Q1011 NOSIG
Conditions at: WAMM (MENADO/SAM RATUL, ID) observed 0230 UTC 20 August 2019
Temperature: 32.0°C (90°F)
Dewpoint: 22.0°C (72°F) [RH = 56%]
Pressure (altimeter): 29.85 inches Hg (1011.0 mb)
Winds: from the SSW (200 degrees) at 16 MPH (14 knots; 7.2 m/s)
Visibility: 6 or more miles (10+ km)
Ceiling: at least 12,000 feet AGL
Clouds: few clouds at 2200 feet AGL
Weather: no significant weather observed at this time

METAR text: WAMM 200200Z 20010KT 9999 FEW022 32/22 Q1011 NOSIG
Conditions at: WAMM (MENADO/SAM RATUL, ID) observed 0200 UTC 20 August 2019
Temperature: 32.0°C (90°F)
Dewpoint: 22.0°C (72°F) [RH = 56%]
Pressure (altimeter): 29.85 inches Hg (1011.0 mb)
Winds: from the SSW (200 degrees) at 12 MPH (10 knots; 5.1 m/s)
Visibility: 6 or more miles (10+ km)
Ceiling: at least 12,000 feet AGL
Clouds: few clouds at 2200 feet AGL
Weather: no significant weather observed at this time

METAR text: WAMM 200130Z 17008KT 9999 FEW022 32/21 Q1012 NOSIG
Conditions at: WAMM (MENADO/SAM RATUL, ID) observed 0130 UTC 20 August 2019
Temperature: 32.0°C (90°F)
Dewpoint: 21.0°C (70°F) [RH = 52%]
Pressure (altimeter): 29.88 inches Hg (1012.0 mb)
Winds: from the S (170 degrees) at 9 MPH (8 knots; 4.1 m/s)
Visibility: 6 or more miles (10+ km)
Ceiling: at least 12,000 feet AGL
Clouds: few clouds at 2200 feet AGL
Weather: no significant weather observed at this time

METAR text: WAMM 200100Z 17010KT 9999 FEW022 34/22 Q1012 NOSIG
Conditions at: WAMM (MENADO/SAM RATUL, ID) observed 0100 UTC 20 August 2019
Temperature: 34.0°C (93°F)
Dewpoint: 22.0°C (72°F) [RH = 50%]
Pressure (altimeter): 29.88 inches Hg (1012.0 mb)
Winds: from the S (170 degrees) at 12 MPH (10 knots; 5.1 m/s)
Visibility: 6 or more miles (10+ km)
Ceiling: at least 12,000 feet AGL
Clouds: few clouds at 2200 feet AGL
Weather: no significant weather observed at this time

METAR text: WAMM 200030Z 19007KT 9999 FEW023 33/22 Q1012 NOSIG
Conditions at: WAMM (MENADO/SAM RATUL, ID) observed 0030 UTC 20 August 2019
Temperature: 33.0°C (91°F)
Dewpoint: 22.0°C (72°F) [RH = 53%]
Pressure (altimeter): 29.88 inches Hg (1012.0 mb)
Winds: from the S (190 degrees) at 8 MPH (7 knots; 3.6 m/s)
Visibility: 6 or more miles (10+ km)
Ceiling: at least 12,000 feet AGL
Clouds: few clouds at 2300 feet AGL
Weather: no significant weather observed at this time

METAR text: WAMM 200000Z 18008KT 9999 FEW023 32/21 Q1012 NOSIG
Conditions at: WAMM (MENADO/SAM RATUL, ID) observed 0000 UTC 20 August 2019
Temperature: 32.0°C (90°F)
Dewpoint: 21.0°C (70°F) [RH = 52%]
Pressure (altimeter): 29.88 inches Hg (1012.0 mb)
Winds: from the S (180 degrees) at 9 MPH (8 knots; 4.1 m/s)
Visibility: 6 or more miles (10+ km)
Ceiling: at least 12,000 feet AGL
Clouds: few clouds at 2300 feet AGL
Weather: no significant weather observed at this time

METAR text: WAMM 192330Z VRB02KT 9999 FEW022 29/22 Q1012 NOSIG
Conditions at: WAMM (MENADO/SAM RATUL, ID) observed 2330 UTC 19 August 2019
Temperature: 29.0°C (84°F)
Dewpoint: 22.0°C (72°F) [RH = 66%]
Pressure (altimeter): 29.88 inches Hg (1012.0 mb)
Winds: variable direction winds at 2 MPH (2 knots; 1.0 m/s)
Visibility: 6 or more miles (10+ km)
Ceiling: at least 12,000 feet AGL
Clouds: few clouds at 2200 feet AGL
Weather: no significant weather observed at this time

METAR text: WAMM 192300Z VRB02KT 9999 FEW022 27/23 Q1011 NOSIG
Conditions at: WAMM (MENADO/SAM RATUL, ID) observed 2300 UTC 19 August 2019
Temperature: 27.0°C (81°F)
Dewpoint: 23.0°C (73°F) [RH = 79%]
Pressure (altimeter): 29.85 inches Hg (1011.0 mb)
Winds: variable direction winds at 2 MPH (2 knots; 1.0 m/s)
Visibility: 6 or more miles (10+ km)
Ceiling: at least 12,000 feet AGL
Clouds: few clouds at 2200 feet AGL
Weather: no significant weather observed at this time

METAR text: WAMM 192230Z VRB02KT 9000 FEW022 24/22 Q1011 NOSIG
Conditions at: WAMM (MENADO/SAM RATUL, ID) observed 2230 UTC 19 August 2019
Temperature: 24.0°C (75°F)
Dewpoint: 22.0°C (72°F) [RH = 89%]
Pressure (altimeter): 29.85 inches Hg (1011.0 mb)
Winds: variable direction winds at 2 MPH (2 knots; 1.0 m/s)
Visibility: 6 miles ( 9 km)
Ceiling: at least 12,000 feet AGL
Clouds: few clouds at 2200 feet AGL
Weather: no significant weather observed at this time

METAR text: WAMM 192200Z 12003KT 9000 FEW022 22/21 Q1011 NOSIG
Conditions at: WAMM (MENADO/SAM RATUL, ID) observed 2200 UTC 19 August 2019
Temperature: 22.0°C (72°F)
Dewpoint: 21.0°C (70°F) [RH = 94%]
Pressure (altimeter): 29.85 inches Hg (1011.0 mb)
Winds: from the ESE (120 degrees) at 3 MPH (3 knots; 1.5 m/s)
Visibility: 6 miles ( 9 km)
Ceiling: at least 12,000 feet AGL
Clouds: few clouds at 2200 feet AGL
Weather: no significant weather observed at this time

METAR text: WAMM 192130Z 20007KT 9000 FEW023 24/22 Q1010 NOSIG
Conditions at: WAMM (MENADO/SAM RATUL, ID) observed 2130 UTC 19 August 2019
Temperature: 24.0°C (75°F)
Dewpoint: 22.0°C (72°F) [RH = 89%]
Pressure (altimeter): 29.82 inches Hg (1010.0 mb)
Winds: from the SSW (200 degrees) at 8 MPH (7 knots; 3.6 m/s)
Visibility: 6 miles ( 9 km)
Ceiling: at least 12,000 feet AGL
Clouds: few clouds at 2300 feet AGL
Weather: no significant weather observed at this time

METAR text: WAMM 192100Z 09003KT 9000 FEW023 22/21 Q1010 NOSIG
Conditions at: WAMM (MENADO/SAM RATUL, ID) observed 2100 UTC 19 August 2019
Temperature: 22.0°C (72°F)
Dewpoint: 21.0°C (70°F) [RH = 94%]
Pressure (altimeter): 29.82 inches Hg (1010.0 mb)
Winds: from the E (90 degrees) at 3 MPH (3 knots; 1.5 m/s)
Visibility: 6 miles ( 9 km)
Ceiling: at least 12,000 feet AGL
Clouds: few clouds at 2300 feet AGL
Weather: no significant weather observed at this time

METAR text: WAMM 192030Z 11004KT 9000 FEW023 23/21 Q1010 NOSIG
Conditions at: WAMM (MENADO/SAM RATUL, ID) observed 2030 UTC 19 August 2019
Temperature: 23.0°C (73°F)
Dewpoint: 21.0°C (70°F) [RH = 89%]
Pressure (altimeter): 29.82 inches Hg (1010.0 mb)
Winds: from the ESE (110 degrees) at 5 MPH (4 knots; 2.1 m/s)
Visibility: 6 miles ( 9 km)
Ceiling: at least 12,000 feet AGL
Clouds: few clouds at 2300 feet AGL
Weather: no significant weather observed at this time

METAR text: WAMM 192000Z VRB02KT 9000 FEW023 22/21 Q1010 NOSIG
Conditions at: WAMM (MENADO/SAM RATUL, ID) observed 2000 UTC 19 August 2019
Temperature: 22.0°C (72°F)
Dewpoint: 21.0°C (70°F) [RH = 94%]
Pressure (altimeter): 29.82 inches Hg (1010.0 mb)
Winds: variable direction winds at 2 MPH (2 knots; 1.0 m/s)
Visibility: 6 miles ( 9 km)
Ceiling: at least 12,000 feet AGL
Clouds: few clouds at 2300 feet AGL
Weather: no significant weather observed at this time

METAR text: WAMM 191930Z 10003KT 9000 FEW023 22/22 Q1010 NOSIG
Conditions at: WAMM (MENADO/SAM RATUL, ID) observed 1930 UTC 19 August 2019
Temperature: 22.0°C (72°F)
Dewpoint: 22.0°C (72°F) [RH = 100%]
Pressure (altimeter): 29.82 inches Hg (1010.0 mb)
Winds: from the E (100 degrees) at 3 MPH (3 knots; 1.5 m/s)
Visibility: 6 miles ( 9 km)
Ceiling: at least 12,000 feet AGL
Clouds: few clouds at 2300 feet AGL
Weather: no significant weather observed at this time

METAR text: WAMM 191830Z 10003KT 9000 FEW023 22/22 Q1010 NOSIG
Conditions at: WAMM (MENADO/SAM RATUL, ID) observed 1830 UTC 19 August 2019
Temperature: 22.0°C (72°F)
Dewpoint: 22.0°C (72°F) [RH = 100%]
Pressure (altimeter): 29.82 inches Hg (1010.0 mb)
Winds: from the E (100 degrees) at 3 MPH (3 knots; 1.5 m/s)
Visibility: 6 miles ( 9 km)
Ceiling: at least 12,000 feet AGL
Clouds: few clouds at 2300 feet AGL
Weather: no significant weather observed at this time

METAR text: WAMM 191800Z 11003KT 9000 FEW022 22/22 Q1010 NOSIG
Conditions at: WAMM (MENADO/SAM RATUL, ID) observed 1800 UTC 19 August 2019
Temperature: 22.0°C (72°F)
Dewpoint: 22.0°C (72°F) [RH = 100%]
Pressure (altimeter): 29.82 inches Hg (1010.0 mb)
Winds: from the ESE (110 degrees) at 3 MPH (3 knots; 1.5 m/s)
Visibility: 6 miles ( 9 km)
Ceiling: at least 12,000 feet AGL
Clouds: few clouds at 2200 feet AGL
Weather: no significant weather observed at this time

METAR text: WAMM 191730Z 35002KT 9000 FEW022 22/22 Q1011 NOSIG
Conditions at: WAMM (MENADO/SAM RATUL, ID) observed 1730 UTC 19 August 2019
Temperature: 22.0°C (72°F)
Dewpoint: 22.0°C (72°F) [RH = 100%]
Pressure (altimeter): 29.85 inches Hg (1011.0 mb)
Winds: from the N (350 degrees) at 2 MPH (2 knots; 1.0 m/s)
Visibility: 6 miles ( 9 km)
Ceiling: at least 12,000 feet AGL
Clouds: few clouds at 2200 feet AGL
Weather: no significant weather observed at this time

METAR text: WAMM 191700Z 34002KT 9000 FEW022 22/22 Q1012 NOSIG
Conditions at: WAMM (MENADO/SAM RATUL, ID) observed 1700 UTC 19 August 2019
Temperature: 22.0°C (72°F)
Dewpoint: 22.0°C (72°F) [RH = 100%]
Pressure (altimeter): 29.88 inches Hg (1012.0 mb)
Winds: from the NNW (340 degrees) at 2 MPH (2 knots; 1.0 m/s)
Visibility: 6 miles ( 9 km)
Ceiling: at least 12,000 feet AGL
Clouds: few clouds at 2200 feet AGL
Weather: no significant weather observed at this time

METAR text: WAMM 191630Z VRB01KT 9000 FEW023 23/22 Q1012 NOSIG
Conditions at: WAMM (MENADO/SAM RATUL, ID) observed 1630 UTC 19 August 2019
Temperature: 23.0°C (73°F)
Dewpoint: 22.0°C (72°F) [RH = 94%]
Pressure (altimeter): 29.88 inches Hg (1012.0 mb)
Winds: variable direction winds at 1 MPH (1 knots; 0.5 m/s)
Visibility: 6 miles ( 9 km)
Ceiling: at least 12,000 feet AGL
Clouds: few clouds at 2300 feet AGL
Weather: no significant weather observed at this time

METAR text: WAMM 191600Z VRB02KT 9000 FEW022 23/22 Q1012 NOSIG
Conditions at: WAMM (MENADO/SAM RATUL, ID) observed 1600 UTC 19 August 2019
Temperature: 23.0°C (73°F)
Dewpoint: 22.0°C (72°F) [RH = 94%]
Pressure (altimeter): 29.88 inches Hg (1012.0 mb)
Winds: variable direction winds at 2 MPH (2 knots; 1.0 m/s)
Visibility: 6 miles ( 9 km)
Ceiling: at least 12,000 feet AGL
Clouds: few clouds at 2200 feet AGL
Weather: no significant weather observed at this time

METAR text: WAMM 191530Z 33003KT 9000 FEW022 23/22 Q1012 NOSIG
Conditions at: WAMM (MENADO/SAM RATUL, ID) observed 1530 UTC 19 August 2019
Temperature: 23.0°C (73°F)
Dewpoint: 22.0°C (72°F) [RH = 94%]
Pressure (altimeter): 29.88 inches Hg (1012.0 mb)
Winds: from the NNW (330 degrees) at 3 MPH (3 knots; 1.5 m/s)
Visibility: 6 miles ( 9 km)
Ceiling: at least 12,000 feet AGL
Clouds: few clouds at 2200 feet AGL
Weather: no significant weather observed at this time

METAR text: WAMM 191500Z VRB01KT 9000 FEW022 23/22 Q1012 NOSIG
Conditions at: WAMM (MENADO/SAM RATUL, ID) observed 1500 UTC 19 August 2019
Temperature: 23.0°C (73°F)
Dewpoint: 22.0°C (72°F) [RH = 94%]
Pressure (altimeter): 29.88 inches Hg (1012.0 mb)
Winds: variable direction winds at 1 MPH (1 knots; 0.5 m/s)
Visibility: 6 miles ( 9 km)
Ceiling: at least 12,000 feet AGL
Clouds: few clouds at 2200 feet AGL
Weather: no significant weather observed at this time

METAR text: WAMM 191430Z VRB01KT 9000 FEW022 24/22 Q1012 NOSIG
Conditions at: WAMM (MENADO/SAM RATUL, ID) observed 1430 UTC 19 August 2019
Temperature: 24.0°C (75°F)
Dewpoint: 22.0°C (72°F) [RH = 89%]
Pressure (altimeter): 29.88 inches Hg (1012.0 mb)
Winds: variable direction winds at 1 MPH (1 knots; 0.5 m/s)
Visibility: 6 miles ( 9 km)
Ceiling: at least 12,000 feet AGL
Clouds: few clouds at 2200 feet AGL
Weather: no significant weather observed at this time

METAR text: WAMM 191400Z VRB02KT 9000 FEW022 24/22 Q1012 NOSIG
Conditions at: WAMM (MENADO/SAM RATUL, ID) observed 1400 UTC 19 August 2019
Temperature: 24.0°C (75°F)
Dewpoint: 22.0°C (72°F) [RH = 89%]
Pressure (altimeter): 29.88 inches Hg (1012.0 mb)
Winds: variable direction winds at 2 MPH (2 knots; 1.0 m/s)
Visibility: 6 miles ( 9 km)
Ceiling: at least 12,000 feet AGL
Clouds: few clouds at 2200 feet AGL
Weather: no significant weather observed at this time

METAR text: WAMM 191330Z 00000KT 9000 FEW022 24/22 Q1012 NOSIG
Conditions at: WAMM (MENADO/SAM RATUL, ID) observed 1330 UTC 19 August 2019
Temperature: 24.0°C (75°F)
Dewpoint: 22.0°C (72°F) [RH = 89%]
Pressure (altimeter): 29.88 inches Hg (1012.0 mb)
Winds: calm
Visibility: 6 miles ( 9 km)
Ceiling: at least 12,000 feet AGL
Clouds: few clouds at 2200 feet AGL
Weather: no significant weather observed at this time

METAR text: WAMM 191300Z 00000KT 9000 FEW022 24/22 Q1012 NOSIG
Conditions at: WAMM (MENADO/SAM RATUL, ID) observed 1300 UTC 19 August 2019
Temperature: 24.0°C (75°F)
Dewpoint: 22.0°C (72°F) [RH = 89%]
Pressure (altimeter): 29.88 inches Hg (1012.0 mb)
Winds: calm
Visibility: 6 miles ( 9 km)
Ceiling: at least 12,000 feet AGL
Clouds: few clouds at 2200 feet AGL
Weather: no significant weather observed at this time

METAR text: WAMM 191230Z 11004KT 9999 FEW021 24/22 Q1012 NOSIG
Conditions at: WAMM (MENADO/SAM RATUL, ID) observed 1230 UTC 19 August 2019
Temperature: 24.0°C (75°F)
Dewpoint: 22.0°C (72°F) [RH = 89%]
Pressure (altimeter): 29.88 inches Hg (1012.0 mb)
Winds: from the ESE (110 degrees) at 5 MPH (4 knots; 2.1 m/s)
Visibility: 6 or more miles (10+ km)
Ceiling: at least 12,000 feet AGL
Clouds: few clouds at 2100 feet AGL
Weather: no significant weather observed at this time

METAR text: WAMM 191200Z 14004KT 9999 FEW021 25/22 Q1011 NOSIG
Conditions at: WAMM (MENADO/SAM RATUL, ID) observed 1200 UTC 19 August 2019
Temperature: 25.0°C (77°F)
Dewpoint: 22.0°C (72°F) [RH = 83%]
Pressure (altimeter): 29.85 inches Hg (1011.0 mb)
Winds: from the SE (140 degrees) at 5 MPH (4 knots; 2.1 m/s)
Visibility: 6 or more miles (10+ km)
Ceiling: at least 12,000 feet AGL
Clouds: few clouds at 2100 feet AGL
Weather: no significant weather observed at this time

METAR text: WAMM 191130Z 12006KT 9999 FEW021 25/22 Q1011 NOSIG
Conditions at: WAMM (MENADO/SAM RATUL, ID) observed 1130 UTC 19 August 2019
Temperature: 25.0°C (77°F)
Dewpoint: 22.0°C (72°F) [RH = 83%]
Pressure (altimeter): 29.85 inches Hg (1011.0 mb)
Winds: from the ESE (120 degrees) at 7 MPH (6 knots; 3.1 m/s)
Visibility: 6 or more miles (10+ km)
Ceiling: at least 12,000 feet AGL
Clouds: few clouds at 2100 feet AGL
Weather: no significant weather observed at this time

METAR text: WAMM 191100Z 00000KT 9999 FEW021 25/22 Q1011 NOSIG
Conditions at: WAMM (MENADO/SAM RATUL, ID) observed 1100 UTC 19 August 2019
Temperature: 25.0°C (77°F)
Dewpoint: 22.0°C (72°F) [RH = 83%]
Pressure (altimeter): 29.85 inches Hg (1011.0 mb)
Winds: calm
Visibility: 6 or more miles (10+ km)
Ceiling: at least 12,000 feet AGL
Clouds: few clouds at 2100 feet AGL
Weather: no significant weather observed at this time

METAR text: WAMM 191030Z 11006KT 9999 FEW021 26/22 Q1010 NOSIG
Conditions at: WAMM (MENADO/SAM RATUL, ID) observed 1030 UTC 19 August 2019
Temperature: 26.0°C (79°F)
Dewpoint: 22.0°C (72°F) [RH = 79%]
Pressure (altimeter): 29.82 inches Hg (1010.0 mb)
Winds: from the ESE (110 degrees) at 7 MPH (6 knots; 3.1 m/s)
Visibility: 6 or more miles (10+ km)
Ceiling: at least 12,000 feet AGL
Clouds: few clouds at 2100 feet AGL
Weather: no significant weather observed at this time

METAR text: WAMM 191000Z 11005KT 9999 FEW021 27/23 Q1010 NOSIG
Conditions at: WAMM (MENADO/SAM RATUL, ID) observed 1000 UTC 19 August 2019
Temperature: 27.0°C (81°F)
Dewpoint: 23.0°C (73°F) [RH = 79%]
Pressure (altimeter): 29.82 inches Hg (1010.0 mb)
Winds: from the ESE (110 degrees) at 6 MPH (5 knots; 2.6 m/s)
Visibility: 6 or more miles (10+ km)
Ceiling: at least 12,000 feet AGL
Clouds: few clouds at 2100 feet AGL
Weather: no significant weather observed at this time

METAR text: WAMM 190930Z 16003KT 9999 SCT021 28/23 Q1010 NOSIG
Conditions at: WAMM (MENADO/SAM RATUL, ID) observed 0930 UTC 19 August 2019
Temperature: 28.0°C (82°F)
Dewpoint: 23.0°C (73°F) [RH = 74%]
Pressure (altimeter): 29.82 inches Hg (1010.0 mb)
Winds: from the SSE (160 degrees) at 3 MPH (3 knots; 1.5 m/s)
Visibility: 6 or more miles (10+ km)
Ceiling: at least 12,000 feet AGL
Clouds: scattered clouds at 2100 feet AGL
Weather: no significant weather observed at this time

METAR text: WAMM 190900Z 16003KT 9999 SCT021 29/23 Q1009 NOSIG
Conditions at: WAMM (MENADO/SAM RATUL, ID) observed 0900 UTC 19 August 2019
Temperature: 29.0°C (84°F)
Dewpoint: 23.0°C (73°F) [RH = 70%]
Pressure (altimeter): 29.79 inches Hg (1009.0 mb)
Winds: from the SSE (160 degrees) at 3 MPH (3 knots; 1.5 m/s)
Visibility: 6 or more miles (10+ km)
Ceiling: at least 12,000 feet AGL
Clouds: scattered clouds at 2100 feet AGL
Weather: no significant weather observed at this time

METAR text: WAMM 190830Z 12003KT 9999 SCT021 30/23 Q1009 NOSIG
Conditions at: WAMM (MENADO/SAM RATUL, ID) observed 0830 UTC 19 August 2019
Temperature: 30.0°C (86°F)
Dewpoint: 23.0°C (73°F) [RH = 66%]
Pressure (altimeter): 29.79 inches Hg (1009.0 mb)
Winds: from the ESE (120 degrees) at 3 MPH (3 knots; 1.5 m/s)
Visibility: 6 or more miles (10+ km)
Ceiling: at least 12,000 feet AGL
Clouds: scattered clouds at 2100 feet AGL
Weather: no significant weather observed at this time

Forecast for: WAMM (MENADO/SAM RATUL, ID)
Text: TAF WAMM 201700Z 2018/2124 19010KT 9000 FEW022
Forecast period: 1800 UTC 20 August 2019 to 0000 UTC 22 August 2019
Forecast type: FROM: standard forecast or significant change
Winds: from the S (190 degrees) at 12 MPH (10 knots; 5.1 m/s)
Visibility: 6 miles (9 km)
Ceiling: at least 12,000 feet AGL
Clouds: few clouds at 2200 feet AGL
Weather: no significant weather forecast for this period